createdAt,value
2018-11-10T00:00:44.056Z,55.33
2018-11-10T00:03:49.061Z,56.30
2018-11-10T00:06:55.972Z,54.63
2018-11-10T00:10:01.022Z,42.40
2018-11-10T00:13:06.112Z,42.17
2018-11-10T00:16:13.209Z,42.57
2018-11-10T00:19:20.285Z,41.70
2018-11-10T00:22:25.319Z,47.83
2018-11-10T00:25:32.197Z,52.00
2018-11-10T00:28:37.216Z,49.67
2018-11-10T00:31:42.306Z,49.33
2018-11-10T00:34:47.368Z,50.47
2018-11-10T00:37:56.474Z,49.97
2018-11-10T00:41:01.523Z,49.07
2018-11-10T00:44:14.303Z,45.57
2018-11-10T00:47:30.281Z,47.53
2018-11-10T00:50:39.243Z,41.60
2018-11-10T00:53:44.393Z,47.10
2018-11-10T00:56:59.755Z,47.53
2018-11-10T01:00:05.277Z,41.63
2018-11-10T01:03:12.177Z,46.37
2018-11-10T01:06:17.211Z,37.60
2018-11-10T01:09:24.099Z,44.03
2018-11-10T01:12:30.155Z,46.27
2018-11-10T01:15:36.718Z,44.40
2018-11-10T01:18:45.434Z,43.10
2018-11-10T01:21:52.567Z,44.37
2018-11-10T01:24:59.511Z,46.07
2018-11-10T01:28:04.775Z,42.37
2018-11-10T01:31:11.731Z,46.53
2018-11-10T01:34:20.874Z,41.30
2018-11-10T01:37:27.424Z,41.27
2018-11-10T01:40:36.460Z,39.57
2018-11-10T01:43:43.133Z,39.33
2018-11-10T01:46:48.162Z,40.47
2018-11-10T01:49:58.873Z,40.60
2018-11-10T01:53:06.961Z,44.03
2018-11-10T01:56:13.582Z,41.20
2018-11-10T01:59:18.643Z,41.20
2018-11-10T02:02:23.655Z,44.97
2018-11-10T02:05:30.508Z,38.77
2018-11-10T02:08:37.717Z,43.40
2018-11-10T02:11:42.783Z,42.70
2018-11-10T02:14:47.817Z,41.83
2018-11-10T02:17:54.454Z,42.27
2018-11-10T02:20:59.506Z,42.77
2018-11-10T02:24:08.379Z,39.40
2018-11-10T02:27:19.331Z,42.57
2018-11-10T02:30:24.353Z,44.37
2018-11-10T02:33:31.284Z,41.13
2018-11-10T02:36:38.473Z,40.33
2018-11-10T02:39:43.477Z,43.03
2018-11-10T02:42:48.470Z,38.60
2018-11-10T02:46:10.197Z,43.00
2018-11-10T02:49:16.841Z,39.67
2018-11-10T02:52:23.943Z,38.03
2018-11-10T02:55:30.043Z,41.27
2018-11-10T02:58:38.409Z,38.13
2018-11-10T03:01:45.090Z,51.47
2018-11-10T03:04:50.079Z,37.77
2018-11-10T03:07:55.122Z,41.67
2018-11-10T03:11:00.088Z,43.43
2018-11-10T03:14:05.474Z,40.63
2018-11-10T03:17:12.520Z,43.00
2018-11-10T03:20:17.562Z,42.53
2018-11-10T03:23:24.155Z,42.43
2018-11-10T03:26:31.044Z,42.87
2018-11-10T03:29:37.911Z,43.40
2018-11-10T03:32:44.808Z,44.67
2018-11-10T03:35:57.073Z,42.87
2018-11-10T03:39:06.370Z,42.77
2018-11-10T03:42:13.470Z,43.93
2018-11-10T03:45:20.091Z,45.53
2018-11-10T03:48:27.115Z,41.70
2018-11-10T03:51:33.718Z,42.40
2018-11-10T03:54:38.772Z,45.53
2018-11-10T03:57:45.768Z,47.73
2018-11-10T04:00:54.669Z,44.63
2018-11-10T04:04:01.362Z,45.67
2018-11-10T04:07:06.382Z,45.47
2018-11-10T04:10:14.204Z,45.23
2018-11-10T04:13:21.025Z,44.40
2018-11-10T04:16:26.061Z,46.63
2018-11-10T04:19:32.718Z,46.17
2018-11-10T04:22:55.366Z,46.20
2018-11-10T04:26:00.418Z,53.17
2018-11-10T04:29:07.333Z,50.20
2018-11-10T04:32:12.355Z,48.97
2018-11-10T04:35:17.362Z,47.97
2018-11-10T04:38:24.315Z,45.00
2018-11-10T04:41:29.309Z,43.87
2018-11-10T04:44:35.950Z,50.97
2018-11-10T04:47:42.935Z,45.07
2018-11-10T04:50:51.884Z,46.97
2018-11-10T04:53:57.033Z,42.80
2018-11-10T04:57:04.222Z,47.40
2018-11-10T05:00:11.821Z,51.97
2018-11-10T05:03:18.443Z,49.70
2018-11-10T05:06:23.453Z,47.87
2018-11-10T05:09:28.526Z,51.33
2018-11-10T05:15:04.845Z,53.00
2018-11-10T05:18:11.570Z,58.23
2018-11-10T05:21:16.670Z,56.60
2018-11-10T05:24:21.666Z,53.20
2018-11-10T05:27:26.681Z,54.20
2018-11-10T05:30:31.665Z,58.00
2018-11-10T05:33:36.673Z,54.73
2018-11-10T05:36:43.273Z,54.20
2018-11-10T05:39:48.326Z,57.07
2018-11-10T05:42:57.302Z,52.87
2018-11-10T05:46:02.307Z,51.50
2018-11-10T05:49:09.088Z,59.00
2018-11-10T05:52:16.102Z,54.23
2018-11-10T05:55:22.197Z,60.60
2018-11-10T05:58:27.243Z,53.07
2018-11-10T06:01:33.879Z,56.73
2018-11-10T06:04:38.892Z,55.73
2018-11-10T06:07:45.909Z,60.93
2018-11-10T06:10:52.667Z,55.63
2018-11-10T06:14:01.685Z,58.93
2018-11-10T06:17:06.871Z,56.83
2018-11-10T06:20:14.138Z,56.83
2018-11-10T06:23:19.162Z,58.77
2018-11-10T06:26:24.213Z,71.73
2018-11-10T06:29:29.259Z,57.73
2018-11-10T06:32:34.364Z,104.63
2018-11-10T06:35:41.369Z,60.60
2018-11-10T06:38:48.150Z,64.97
2018-11-10T06:41:54.802Z,69.77
2018-11-10T06:45:01.500Z,64.23
2018-11-10T06:48:06.611Z,68.13
2018-11-10T06:51:13.571Z,57.73
2018-11-10T06:54:23.062Z,62.80
2018-11-10T06:57:29.972Z,60.53
2018-11-10T07:00:36.691Z,59.60
2018-11-10T07:03:41.705Z,77.03
2018-11-10T07:06:46.819Z,61.60
2018-11-10T07:09:55.086Z,65.13
2018-11-10T07:13:04.499Z,60.67
2018-11-10T07:16:09.755Z,57.27
2018-11-10T07:19:14.943Z,64.90
2018-11-10T07:22:21.651Z,75.67
2018-11-10T07:25:26.701Z,63.53
2018-11-10T07:28:34.003Z,63.63
2018-11-10T07:31:41.143Z,58.77
2018-11-10T07:34:48.138Z,61.37
2018-11-10T07:37:54.446Z,65.73
2018-11-10T07:41:01.671Z,59.57
2018-11-10T07:44:06.857Z,65.07
2018-11-10T07:47:13.599Z,80.27
2018-11-10T07:50:18.737Z,72.37
2018-11-10T07:53:23.777Z,56.63
2018-11-10T07:56:30.986Z,59.53
2018-11-10T07:59:37.720Z,59.20
2018-11-10T08:02:43.909Z,54.43
2018-11-10T08:05:53.339Z,54.70
2018-11-10T08:08:58.378Z,58.60
2018-11-10T08:12:05.631Z,56.57
2018-11-10T08:15:12.934Z,60.17
2018-11-10T08:18:18.114Z,62.30
2018-11-10T08:21:24.629Z,59.87
2018-11-10T08:24:31.253Z,53.33
2018-11-10T08:27:38.239Z,53.50
2018-11-10T08:30:43.326Z,53.87
2018-11-10T08:33:50.230Z,55.33
2018-11-10T08:36:58.905Z,51.37
2018-11-10T08:40:06.926Z,57.53
2018-11-10T08:43:13.510Z,54.50
2018-11-10T08:46:18.591Z,54.23
2018-11-10T08:49:23.769Z,63.60
2018-11-10T08:52:35.746Z,50.60
2018-11-10T08:55:45.159Z,51.13
2018-11-10T08:58:52.203Z,50.87
2018-11-10T09:01:59.264Z,48.93
2018-11-10T09:05:07.684Z,51.07
2018-11-10T09:08:12.727Z,53.83
2018-11-10T09:11:19.415Z,48.93
2018-11-10T09:14:26.418Z,46.00
2018-11-10T09:17:33.280Z,45.53
2018-11-10T09:20:46.546Z,45.17
2018-11-10T09:23:58.082Z,42.20
2018-11-10T09:27:03.185Z,45.13
2018-11-10T09:30:13.106Z,42.07
2018-11-10T09:33:20.151Z,40.30
2018-11-10T09:36:28.226Z,40.23
2018-11-10T09:39:33.270Z,43.43
2018-11-10T09:42:38.522Z,37.13
2018-11-10T09:45:43.306Z,39.83
2018-11-10T09:48:48.330Z,34.00
2018-11-10T09:51:53.347Z,35.13
2018-11-10T09:54:58.343Z,31.87
2018-11-10T09:58:03.663Z,28.60
2018-11-10T10:01:15.030Z,29.70
2018-11-10T10:04:19.942Z,27.93
2018-11-10T10:07:24.965Z,72.57
2018-11-10T10:10:29.991Z,31.77
2018-11-10T10:13:34.999Z,26.17
2018-11-10T10:16:40.097Z,27.00
2018-11-10T10:19:45.082Z,30.37
2018-11-10T10:22:50.488Z,24.67
2018-11-10T10:25:55.538Z,18.97
2018-11-10T10:29:00.628Z,15.43
2018-11-10T10:35:36.875Z,20.43
2018-11-10T10:38:41.699Z,20.40
2018-11-10T10:41:46.729Z,15.57
2018-11-10T10:44:51.709Z,19.87
2018-11-10T10:47:56.714Z,22.70
2018-11-10T10:51:01.818Z,21.50
2018-11-10T10:54:10.906Z,15.47
2018-11-10T10:57:16.209Z,19.93
2018-11-10T11:00:27.270Z,12.53
2018-11-10T11:03:42.432Z,14.17
2018-11-10T11:06:50.608Z,15.60
2018-11-10T11:09:55.962Z,11.90
2018-11-10T11:13:03.839Z,15.43
2018-11-10T11:16:12.555Z,13.63
2018-11-10T11:19:19.527Z,4.50
2018-11-10T11:22:28.637Z,9.57
2018-11-10T11:25:35.323Z,11.53
2018-11-10T11:28:44.246Z,8.70
2018-11-10T11:31:53.459Z,6.63
2018-11-10T11:35:00.328Z,4.67
2018-11-10T11:38:05.523Z,6.13
2018-11-10T11:41:10.621Z,4.03
2018-11-10T11:44:17.428Z,9.10
2018-11-10T11:47:26.237Z,12.67
2018-11-10T11:50:31.274Z,8.07
2018-11-10T11:53:36.345Z,5.20
2018-11-10T11:56:41.370Z,6.63
2018-11-10T11:59:46.447Z,7.53
2018-11-10T12:02:51.525Z,5.43
2018-11-10T12:05:58.236Z,9.17
2018-11-10T12:09:06.139Z,7.73
2018-11-10T12:15:11.554Z,4.60
2018-11-10T12:18:17.609Z,4.47
2018-11-10T12:21:26.067Z,7.93
2018-11-10T12:24:32.621Z,2.67
2018-11-10T12:27:37.820Z,3.90
2018-11-10T12:30:42.793Z,3.27
2018-11-10T12:33:49.408Z,2.00
2018-11-10T12:36:56.566Z,4.53
2018-11-10T12:40:03.821Z,1.93
2018-11-10T12:43:12.605Z,2.77
2018-11-10T12:46:19.514Z,3.80
2018-11-10T12:49:27.048Z,2.03
2018-11-10T12:52:32.151Z,6.30
2018-11-10T12:55:42.386Z,2.50
2018-11-10T12:58:49.435Z,2.10
2018-11-10T13:01:56.409Z,4.90
2018-11-10T13:05:03.320Z,6.73
2018-11-10T13:08:08.467Z,5.30
2018-11-10T13:11:15.204Z,3.10
2018-11-10T13:14:22.339Z,5.10
2018-11-10T13:17:29.620Z,4.57
2018-11-10T13:20:34.886Z,4.80
2018-11-10T13:23:45.425Z,7.60
2018-11-10T13:26:52.692Z,3.33
2018-11-10T13:29:59.545Z,4.13
2018-11-10T13:33:06.449Z,5.03
2018-11-10T13:36:13.649Z,5.27
2018-11-10T13:39:20.954Z,5.30
2018-11-10T13:42:28.148Z,3.60
2018-11-10T13:45:35.000Z,2.50
2018-11-10T13:48:40.230Z,2.17
2018-11-10T13:51:45.650Z,2.83
2018-11-10T13:54:52.048Z,1.83
2018-11-10T13:57:57.096Z,2.63
2018-11-10T14:01:02.075Z,4.77
2018-11-10T14:04:07.069Z,4.47
2018-11-10T14:07:12.127Z,4.40
2018-11-10T14:10:19.515Z,3.23
2018-11-10T14:13:26.675Z,3.27
2018-11-10T14:16:33.676Z,5.43
2018-11-10T14:19:38.740Z,4.57
2018-11-10T14:22:44.781Z,86.13
2018-11-10T14:25:50.105Z,8.53
2018-11-10T14:28:57.559Z,6.03
2018-11-10T14:32:08.265Z,4.43
2018-11-10T14:35:17.693Z,3.40
2018-11-10T14:38:28.941Z,4.87
2018-11-10T14:41:33.948Z,5.27
2018-11-10T14:44:44.494Z,3.73
2018-11-10T14:47:49.629Z,7.73
2018-11-10T14:50:56.798Z,8.43
2018-11-10T14:54:01.831Z,4.10
2018-11-10T14:57:06.832Z,5.07
2018-11-10T15:00:17.146Z,4.10
2018-11-10T15:03:22.334Z,5.90
2018-11-10T15:06:27.383Z,5.47
2018-11-10T15:09:34.490Z,2.20
2018-11-10T15:12:42.980Z,3.20
2018-11-10T15:15:50.004Z,6.50
2018-11-10T15:18:57.010Z,3.33
2018-11-10T15:22:04.163Z,4.70
2018-11-10T15:25:12.914Z,13.60
2018-11-10T15:28:20.030Z,3.03
2018-11-10T15:31:26.664Z,2.23
2018-11-10T15:34:31.718Z,3.50
2018-11-10T15:37:38.366Z,4.07
2018-11-10T15:40:45.046Z,2.17
2018-11-10T15:43:52.115Z,6.80
2018-11-10T15:46:59.146Z,9.37
2018-11-10T15:50:07.976Z,3.80
2018-11-10T15:53:14.736Z,3.20
2018-11-10T15:56:19.761Z,3.63
2018-11-10T15:59:26.436Z,2.70
2018-11-10T16:02:33.439Z,10.03
2018-11-10T16:05:38.509Z,5.27
2018-11-10T16:08:43.532Z,2.97
2018-11-10T16:11:48.517Z,5.47
2018-11-10T16:14:53.606Z,4.50
2018-11-10T16:17:58.669Z,5.83
2018-11-10T16:21:03.809Z,6.37
2018-11-10T16:24:09.073Z,12.30
2018-11-10T16:27:15.779Z,3.90
2018-11-10T16:30:20.795Z,4.67
2018-11-10T16:33:25.806Z,3.00
2018-11-10T16:36:30.848Z,2.33
2018-11-10T16:39:35.954Z,4.70
2018-11-10T16:42:43.741Z,2.77
2018-11-10T16:45:50.387Z,4.93
2018-11-10T16:48:57.078Z,13.23
2018-11-10T16:52:02.144Z,3.63
2018-11-10T16:55:07.523Z,3.50
2018-11-10T16:58:16.366Z,3.20
2018-11-10T17:01:25.277Z,2.40
2018-11-10T17:04:32.083Z,35.70
2018-11-10T17:07:39.211Z,33.33
2018-11-10T17:10:46.367Z,2.40
2018-11-10T17:13:56.295Z,6.27
2018-11-10T17:17:01.331Z,1.70
2018-11-10T17:20:08.815Z,4.50
2018-11-10T17:23:13.917Z,20.87
2018-11-10T17:26:21.125Z,4.07
2018-11-10T17:29:27.258Z,2.43
2018-11-10T17:32:32.466Z,2.37
2018-11-10T17:35:39.636Z,2.13
2018-11-10T17:38:44.725Z,9.07
2018-11-10T17:41:51.396Z,2.60
2018-11-10T17:44:57.495Z,2.20
2018-11-10T17:48:09.964Z,2.90
2018-11-10T17:51:15.130Z,2.43
2018-11-10T17:54:20.246Z,4.07
2018-11-10T17:57:27.039Z,3.87
2018-11-10T18:00:32.240Z,5.17
2018-11-10T18:03:39.918Z,7.10
2018-11-10T18:06:47.049Z,6.00
2018-11-10T18:09:52.393Z,2.20
2018-11-10T18:12:59.737Z,3.20
2018-11-10T18:16:12.822Z,6.50
2018-11-10T18:19:20.003Z,3.33
2018-11-10T18:22:26.245Z,9.97
2018-11-10T18:25:32.941Z,6.90
2018-11-10T18:28:38.327Z,5.63
2018-11-10T18:31:45.429Z,15.60
2018-11-10T18:34:52.317Z,5.93
2018-11-10T18:37:59.124Z,5.43
2018-11-10T18:41:06.462Z,6.73
2018-11-10T18:44:11.662Z,4.97
2018-11-10T18:47:18.720Z,3.23
2018-11-10T18:50:23.819Z,4.53
2018-11-10T18:53:28.953Z,5.10
2018-11-10T18:56:34.020Z,6.37
2018-11-10T18:59:41.326Z,12.87
2018-11-10T19:02:48.376Z,4.77
2018-11-10T19:05:53.402Z,12.10
2018-11-10T19:08:58.854Z,3.20
2018-11-10T19:12:04.978Z,5.57
2018-11-10T19:15:15.548Z,3.43
2018-11-10T19:18:24.145Z,2.40
2018-11-10T19:21:29.333Z,5.33
2018-11-10T19:24:36.153Z,3.93
2018-11-10T19:27:42.821Z,4.03
2018-11-10T19:30:47.979Z,2.73
2018-11-10T19:33:54.050Z,7.00
2018-11-10T19:36:59.117Z,3.27
2018-11-10T19:40:05.827Z,4.47
2018-11-10T19:43:11.075Z,2.10
2018-11-10T19:46:16.117Z,7.03
2018-11-10T19:49:21.412Z,3.30
2018-11-10T19:52:26.388Z,2.70
2018-11-10T19:55:31.426Z,8.57
2018-11-10T19:58:36.466Z,9.23
2018-11-10T20:01:41.542Z,3.77
2018-11-10T20:04:46.859Z,4.03
2018-11-10T20:07:51.902Z,20.97
2018-11-10T20:10:57.005Z,5.37
2018-11-10T20:14:02.085Z,5.27
2018-11-10T20:17:07.022Z,6.13
2018-11-10T20:20:16.438Z,4.90
2018-11-10T20:23:21.516Z,3.63
2018-11-10T20:26:27.748Z,3.97
2018-11-10T20:29:32.787Z,3.37
2018-11-10T20:32:38.524Z,5.17
2018-11-10T20:35:43.577Z,4.80
2018-11-10T20:38:48.757Z,4.03
2018-11-10T20:41:53.727Z,7.27
2018-11-10T20:44:58.783Z,6.27
2018-11-10T20:48:04.335Z,6.00
2018-11-10T20:51:09.500Z,6.33
2018-11-10T20:54:14.506Z,8.20
2018-11-10T20:57:21.277Z,6.30
2018-11-10T21:00:28.767Z,5.47
2018-11-10T21:03:35.947Z,6.50
2018-11-10T21:06:42.633Z,5.83
2018-11-10T21:09:49.072Z,5.77
2018-11-10T21:15:05.846Z,4.97
2018-11-10T21:18:12.558Z,7.97
2018-11-10T21:21:17.561Z,4.73
2018-11-10T21:24:24.362Z,6.40
2018-11-10T21:27:29.390Z,5.83
2018-11-10T21:30:34.411Z,6.10
2018-11-10T21:33:41.597Z,5.60
2018-11-10T21:36:46.875Z,4.80
2018-11-10T21:39:51.984Z,4.77
2018-11-10T21:42:57.056Z,5.67
2018-11-10T21:46:02.116Z,7.03
2018-11-10T21:49:09.594Z,5.67
2018-11-10T21:52:14.651Z,6.10
2018-11-10T21:55:19.885Z,7.30
2018-11-10T21:58:25.018Z,5.43
2018-11-10T22:01:30.149Z,20.90
2018-11-10T22:04:36.888Z,9.83
2018-11-10T22:07:41.881Z,4.73
2018-11-10T22:10:47.202Z,4.50
2018-11-10T22:13:52.204Z,5.57
2018-11-10T22:16:57.402Z,4.83
2018-11-10T22:20:02.902Z,5.13
2018-11-10T22:23:08.001Z,5.43
2018-11-10T22:26:12.972Z,4.60
2018-11-10T22:29:18.025Z,4.23
2018-11-10T22:32:23.211Z,5.07
2018-11-10T22:35:28.294Z,5.63
2018-11-10T22:38:33.287Z,4.03
2018-11-10T22:41:38.938Z,5.27
2018-11-10T22:44:43.934Z,7.00
2018-11-10T22:47:49.607Z,7.23
2018-11-10T22:50:54.549Z,4.70
2018-11-10T22:53:59.550Z,7.03
2018-11-10T22:57:04.905Z,3.10
2018-11-10T23:03:13.230Z,3.50
2018-11-10T23:06:18.254Z,2.27
2018-11-10T23:09:23.445Z,2.67
2018-11-10T23:12:28.463Z,1.90
2018-11-10T23:15:33.453Z,2.13
2018-11-10T23:18:38.516Z,2.13
2018-11-10T23:21:43.579Z,3.87
2018-11-10T23:24:48.600Z,2.57
2018-11-10T23:27:53.585Z,40.83
2018-11-10T23:30:58.622Z,4.53
2018-11-10T23:34:04.049Z,8.20
2018-11-10T23:37:09.084Z,4.70
2018-11-10T23:40:16.890Z,5.87
2018-11-10T23:43:24.870Z,3.70
2018-11-10T23:46:29.912Z,15.83
2018-11-10T23:49:34.981Z,2.37
2018-11-10T23:52:41.613Z,2.93
2018-11-10T23:55:46.593Z,2.43
2018-11-10T23:58:54.557Z,1.97
